createdAt,value
2018-07-30T00:01:27.785Z,1.67
2018-07-30T00:03:56.354Z,2.73
2018-07-30T00:06:25.132Z,1.97
2018-07-30T00:08:53.623Z,1.83
2018-07-30T00:11:22.170Z,2.13
2018-07-30T00:13:50.653Z,2.23
2018-07-30T00:16:19.927Z,1.87
2018-07-30T00:18:48.632Z,1.87
2018-07-30T00:21:17.203Z,1.57
2018-07-30T00:23:45.694Z,1.80
2018-07-30T00:26:14.183Z,1.70
2018-07-30T00:28:42.717Z,1.90
2018-07-30T00:31:11.249Z,1.93
2018-07-30T00:33:39.753Z,1.80
2018-07-30T00:36:08.563Z,1.77
2018-07-30T00:38:37.104Z,1.87
2018-07-30T00:41:05.718Z,1.83
2018-07-30T00:43:34.338Z,1.80
2018-07-30T00:46:04.042Z,2.53
2018-07-30T00:48:32.541Z,1.63
2018-07-30T00:51:01.095Z,2.33
2018-07-30T00:53:29.604Z,2.10
2018-07-30T00:55:58.165Z,2.00
2018-07-30T00:58:26.709Z,2.27
2018-07-30T01:00:55.257Z,2.13
2018-07-30T01:03:24.165Z,1.97
2018-07-30T01:05:52.711Z,1.93
2018-07-30T01:08:21.340Z,1.70
2018-07-30T01:10:49.915Z,2.03
2018-07-30T01:13:18.467Z,1.90
2018-07-30T01:15:47.103Z,1.90
2018-07-30T01:18:15.646Z,1.70
2018-07-30T01:20:44.138Z,1.83
2018-07-30T01:23:12.662Z,1.83
2018-07-30T01:25:41.419Z,1.77
2018-07-30T01:28:09.913Z,1.90
2018-07-30T01:30:38.456Z,1.60
2018-07-30T01:33:07.334Z,1.87
2018-07-30T01:35:35.849Z,1.60
2018-07-30T01:38:04.516Z,2.00
2018-07-30T01:40:33.015Z,1.60
2018-07-30T01:43:01.515Z,2.10
2018-07-30T01:45:30.023Z,1.70
2018-07-30T01:47:58.522Z,2.17
2018-07-30T01:50:27.017Z,2.40
2018-07-30T01:52:55.568Z,1.67
2018-07-30T01:55:24.212Z,1.77
2018-07-30T01:57:53.168Z,1.87
2018-07-30T02:00:21.688Z,2.13
2018-07-30T02:02:50.212Z,1.80
2018-07-30T02:05:18.758Z,1.63
2018-07-30T02:07:47.262Z,1.70
2018-07-30T02:10:15.769Z,1.60
2018-07-30T02:12:44.273Z,1.77
2018-07-30T02:15:15.120Z,1.80
2018-07-30T02:17:43.655Z,1.80
2018-07-30T02:20:12.159Z,1.70
2018-07-30T02:22:40.656Z,1.60
2018-07-30T02:25:09.667Z,1.60
2018-07-30T02:27:38.200Z,2.20
2018-07-30T02:30:07.790Z,2.00
2018-07-30T02:32:36.622Z,1.97
2018-07-30T02:35:05.988Z,1.97
2018-07-30T02:37:34.814Z,2.33
2018-07-30T02:40:04.099Z,2.27
2018-07-30T02:42:32.651Z,1.83
2018-07-30T02:45:01.447Z,2.43
2018-07-30T02:47:30.019Z,2.17
2018-07-30T02:49:58.582Z,1.63
2018-07-30T02:52:27.103Z,2.30
2018-07-30T02:54:55.700Z,2.07
2018-07-30T02:57:24.205Z,2.40
2018-07-30T02:59:52.727Z,2.00
2018-07-30T03:02:21.252Z,1.63
2018-07-30T03:04:49.781Z,1.77
2018-07-30T03:07:18.316Z,1.83
2018-07-30T03:09:46.847Z,1.87
2018-07-30T03:12:15.346Z,1.80
2018-07-30T03:14:43.914Z,1.90
2018-07-30T03:17:12.447Z,1.77
2018-07-30T03:19:40.995Z,1.67
2018-07-30T03:22:09.564Z,2.93
2018-07-30T03:24:38.308Z,2.00
2018-07-30T03:27:06.847Z,1.70
2018-07-30T03:29:35.368Z,1.83
2018-07-30T03:32:04.292Z,1.70
2018-07-30T03:34:32.940Z,2.07
2018-07-30T03:37:01.417Z,1.90
2018-07-30T03:39:30.065Z,2.10
2018-07-30T03:41:58.607Z,2.03
2018-07-30T03:44:27.220Z,1.62
2018-07-30T03:46:55.697Z,2.17
2018-07-30T03:49:24.201Z,2.27
2018-07-30T03:51:52.712Z,2.40
2018-07-30T03:54:21.739Z,1.50
2018-07-30T03:56:50.490Z,1.83
2018-07-30T03:59:19.047Z,1.87
2018-07-30T04:01:47.663Z,1.87
2018-07-30T04:04:16.276Z,1.97
2018-07-30T04:06:44.773Z,2.20
2018-07-30T04:09:13.260Z,1.93
2018-07-30T04:11:41.898Z,3.17
2018-07-30T04:14:10.498Z,2.00
2018-07-30T04:16:48.695Z,2.13
2018-07-30T04:19:17.257Z,2.30
2018-07-30T04:21:45.836Z,2.10
2018-07-30T04:24:14.602Z,1.60
2018-07-30T04:26:44.388Z,1.90
2018-07-30T04:29:13.177Z,1.90
2018-07-30T04:31:41.718Z,2.87
2018-07-30T04:34:10.202Z,1.80
2018-07-30T04:36:38.960Z,2.33
2018-07-30T04:39:08.558Z,2.07
2018-07-30T04:41:37.071Z,2.37
2018-07-30T04:44:05.714Z,2.00
2018-07-30T04:46:34.296Z,2.00
2018-07-30T04:49:03.685Z,2.80
2018-07-30T04:51:32.568Z,2.13
2018-07-30T04:54:01.099Z,2.80
2018-07-30T04:56:29.616Z,1.97
2018-07-30T04:58:58.160Z,2.17
2018-07-30T05:01:26.678Z,2.10
2018-07-30T05:03:55.921Z,2.80
2018-07-30T05:06:24.380Z,2.27
2018-07-30T05:08:52.945Z,2.00
2018-07-30T05:11:21.492Z,2.23
2018-07-30T05:13:50.851Z,2.00
2018-07-30T05:16:19.390Z,3.20
2018-07-30T05:18:47.882Z,2.50
2018-07-30T05:21:16.397Z,2.12
2018-07-30T05:23:44.944Z,2.20
2018-07-30T05:26:13.996Z,2.37
2018-07-30T05:28:42.539Z,2.17
2018-07-30T05:31:11.048Z,2.30
2018-07-30T05:33:39.597Z,2.33
2018-07-30T05:36:08.469Z,2.23
2018-07-30T05:38:36.977Z,2.70
2018-07-30T05:41:05.820Z,2.00
2018-07-30T05:43:34.402Z,2.20
2018-07-30T05:46:03.650Z,2.20
2018-07-30T05:48:32.152Z,2.20
2018-07-30T05:51:00.632Z,2.50
2018-07-30T05:53:29.421Z,2.17
2018-07-30T05:55:58.357Z,2.30
2018-07-30T05:58:27.264Z,1.97
2018-07-30T06:00:56.171Z,1.87
2018-07-30T06:03:24.969Z,2.20
2018-07-30T06:05:53.820Z,2.10
2018-07-30T06:08:22.668Z,2.10
2018-07-30T06:10:51.557Z,2.10
2018-07-30T06:13:20.547Z,2.00
2018-07-30T06:15:49.697Z,1.97
2018-07-30T06:18:18.627Z,2.20
2018-07-30T06:20:47.527Z,2.40
2018-07-30T06:23:16.385Z,2.87
2018-07-30T06:25:45.275Z,2.60
2018-07-30T06:28:14.106Z,1.97
2018-07-30T06:30:43.027Z,1.80
2018-07-30T06:33:11.880Z,2.27
2018-07-30T06:35:40.852Z,1.90
2018-07-30T06:38:09.802Z,2.13
2018-07-30T06:40:38.679Z,2.67
2018-07-30T06:43:07.585Z,2.40
2018-07-30T06:45:36.678Z,2.20
2018-07-30T06:48:05.260Z,3.00
2018-07-30T06:50:34.041Z,2.00
2018-07-30T06:53:02.925Z,2.20
2018-07-30T06:55:31.826Z,2.30
2018-07-30T06:58:00.692Z,2.47
2018-07-30T07:00:29.545Z,2.40
2018-07-30T07:02:59.018Z,2.58
2018-07-30T07:05:27.961Z,1.87
2018-07-30T07:07:56.854Z,2.10
2018-07-30T07:10:25.695Z,1.87
2018-07-30T07:12:54.080Z,2.43
2018-07-30T07:15:22.981Z,2.40
2018-07-30T07:17:51.846Z,2.13
2018-07-30T07:20:20.652Z,2.33
2018-07-30T07:22:49.553Z,1.80
2018-07-30T07:25:18.400Z,2.83
2018-07-30T07:27:47.282Z,2.53
2018-07-30T07:30:16.133Z,1.67
2018-07-30T07:32:44.959Z,2.00
2018-07-30T07:35:13.857Z,2.40
2018-07-30T07:37:42.461Z,2.87
2018-07-30T07:40:11.319Z,1.90
2018-07-30T07:42:40.219Z,2.17
2018-07-30T07:45:09.241Z,1.97
2018-07-30T07:47:38.131Z,1.90
2018-07-30T07:50:07.772Z,1.93
2018-07-30T07:52:37.061Z,1.93
2018-07-30T07:55:06.590Z,2.17
2018-07-30T07:57:35.511Z,2.17
2018-07-30T08:00:07.127Z,1.60
2018-07-30T08:02:36.204Z,1.90
2018-07-30T08:05:05.725Z,1.87
2018-07-30T08:07:34.957Z,1.80
2018-07-30T08:10:03.907Z,2.10
2018-07-30T08:12:32.752Z,1.53
2018-07-30T08:15:01.605Z,2.03
2018-07-30T08:17:30.474Z,1.90
2018-07-30T08:19:59.453Z,1.53
2018-07-30T08:22:28.560Z,1.80
2018-07-30T08:24:57.555Z,1.63
2018-07-30T08:27:26.436Z,1.60
2018-07-30T08:29:55.342Z,1.53
2018-07-30T08:32:24.253Z,1.90
2018-07-30T08:34:53.085Z,1.70
2018-07-30T08:37:21.947Z,1.57
2018-07-30T08:39:50.623Z,2.07
2018-07-30T08:42:19.629Z,1.70
2018-07-30T08:44:48.514Z,1.77
2018-07-30T08:47:17.479Z,1.57
2018-07-30T08:49:46.321Z,1.40
2018-07-30T08:52:15.195Z,1.40
2018-07-30T08:54:44.168Z,1.87
2018-07-30T08:57:13.080Z,1.50
2018-07-30T08:59:41.937Z,1.93
2018-07-30T09:02:10.806Z,1.93
2018-07-30T09:04:40.404Z,1.70
2018-07-30T09:07:09.311Z,1.63
2018-07-30T09:09:38.129Z,1.60
2018-07-30T09:12:07.931Z,1.83
2018-07-30T09:14:36.800Z,1.70
2018-07-30T09:17:05.961Z,1.57
2018-07-30T09:19:36.119Z,1.47
2018-07-30T09:22:05.304Z,1.60
2018-07-30T09:24:34.165Z,1.87
2018-07-30T09:27:03.037Z,1.77
2018-07-30T09:29:32.746Z,1.47
2018-07-30T09:32:01.656Z,1.57
2018-07-30T09:34:30.690Z,1.37
2018-07-30T09:36:59.641Z,1.57
2018-07-30T09:39:28.578Z,1.43
2018-07-30T09:41:57.427Z,1.67
2018-07-30T09:44:26.383Z,1.73
2018-07-30T09:46:55.183Z,2.00
2018-07-30T09:49:24.559Z,1.83
2018-07-30T09:51:53.395Z,1.63
2018-07-30T09:54:22.429Z,1.67
2018-07-30T09:56:51.315Z,2.27
2018-07-30T09:59:20.248Z,1.80
2018-07-30T10:01:49.076Z,1.63
2018-07-30T10:04:17.980Z,1.70
2018-07-30T10:06:47.061Z,1.50
2018-07-30T10:09:15.896Z,1.93
2018-07-30T10:11:44.743Z,1.97
2018-07-30T10:14:13.585Z,1.60
2018-07-30T10:16:42.440Z,1.83
2018-07-30T10:19:11.387Z,2.03
2018-07-30T10:21:40.275Z,1.97
2018-07-30T10:24:09.187Z,1.72
2018-07-30T10:26:38.101Z,1.50
2018-07-30T10:29:07.138Z,1.60
2018-07-30T10:31:35.993Z,1.80
2018-07-30T10:34:04.967Z,2.20
2018-07-30T10:36:33.969Z,1.97
2018-07-30T10:39:02.911Z,1.70
2018-07-30T10:41:31.732Z,1.93
2018-07-30T10:44:00.699Z,1.80
2018-07-30T10:46:29.655Z,1.93
2018-07-30T10:48:58.767Z,1.80
2018-07-30T10:51:27.598Z,1.80
2018-07-30T10:53:56.183Z,1.50
2018-07-30T10:56:25.016Z,2.23
2018-07-30T10:58:54.031Z,1.90
2018-07-30T11:01:22.966Z,1.60
2018-07-30T11:03:51.840Z,1.73
2018-07-30T11:06:20.762Z,1.80
2018-07-30T11:08:49.584Z,1.73
2018-07-30T11:11:18.432Z,1.47
2018-07-30T11:13:47.543Z,1.37
2018-07-30T11:16:16.437Z,1.97
2018-07-30T11:18:45.643Z,1.93
2018-07-30T11:21:15.122Z,1.93
2018-07-30T11:23:43.971Z,1.70
2018-07-30T11:26:12.857Z,1.77
2018-07-30T11:28:41.940Z,2.10
2018-07-30T11:31:10.797Z,1.80
2018-07-30T11:33:39.696Z,2.30
2018-07-30T11:36:08.536Z,2.00
2018-07-30T11:38:37.375Z,1.50
2018-07-30T11:41:06.300Z,1.50
2018-07-30T11:43:35.300Z,1.97
2018-07-30T11:46:04.497Z,1.85
2018-07-30T11:48:33.355Z,1.40
2018-07-30T11:51:02.667Z,2.07
2018-07-30T11:53:31.556Z,1.87
2018-07-30T11:56:00.444Z,1.90
2018-07-30T11:58:29.503Z,2.20
2018-07-30T12:00:59.040Z,2.00
2018-07-30T12:03:28.016Z,1.63
2018-07-30T12:05:56.978Z,1.67
2018-07-30T12:08:25.897Z,1.73
2018-07-30T12:10:54.772Z,2.03
2018-07-30T12:13:23.812Z,1.63
2018-07-30T12:15:52.662Z,1.60
2018-07-30T12:18:21.511Z,1.73
2018-07-30T12:20:50.676Z,1.87
2018-07-30T12:23:19.552Z,1.98
2018-07-30T12:25:48.452Z,1.80
2018-07-30T12:28:17.276Z,1.90
2018-07-30T12:30:46.126Z,1.70
2018-07-30T12:33:14.989Z,1.80
2018-07-30T12:35:43.845Z,1.43
2018-07-30T12:38:12.687Z,2.23
2018-07-30T12:40:41.598Z,1.93
2018-07-30T12:43:10.546Z,1.47
2018-07-30T12:45:45.474Z,1.97
2018-07-30T12:48:14.457Z,1.80
2018-07-30T12:50:43.399Z,1.80
2018-07-30T12:53:12.496Z,1.67
2018-07-30T12:55:41.467Z,1.77
2018-07-30T12:58:10.364Z,1.60
2018-07-30T13:00:39.287Z,1.98
2018-07-30T13:03:08.125Z,1.87
2018-07-30T13:05:36.984Z,1.75
2018-07-30T13:08:05.934Z,2.10
2018-07-30T13:10:34.784Z,2.00
2018-07-30T13:13:03.661Z,1.60
2018-07-30T13:15:32.598Z,1.85
2018-07-30T13:18:01.984Z,1.80
2018-07-30T13:20:31.361Z,1.60
2018-07-30T13:23:00.541Z,1.87
2018-07-30T13:25:29.401Z,1.75
2018-07-30T13:27:58.216Z,1.80
2018-07-30T13:30:27.063Z,1.80
2018-07-30T13:32:55.933Z,1.60
2018-07-30T13:35:24.836Z,1.50
2018-07-30T13:37:53.679Z,1.80
2018-07-30T13:40:22.621Z,2.00
2018-07-30T13:42:51.588Z,2.02
2018-07-30T13:45:20.533Z,1.70
2018-07-30T13:47:49.449Z,1.85
2018-07-30T13:50:18.364Z,1.72
2018-07-30T13:52:47.228Z,2.40
2018-07-30T13:55:16.082Z,1.90
2018-07-30T13:57:44.976Z,2.10
2018-07-30T14:00:13.825Z,1.90
2018-07-30T14:02:42.664Z,2.30
2018-07-30T14:05:11.599Z,2.35
2018-07-30T14:07:40.497Z,2.02
2018-07-30T14:10:09.955Z,2.08
2018-07-30T14:12:39.017Z,1.85
2018-07-30T14:15:08.941Z,2.10
2018-07-30T14:17:37.917Z,1.75
2018-07-30T14:20:08.136Z,1.90
2018-07-30T14:22:37.029Z,2.20
2018-07-30T14:25:06.169Z,1.82
2018-07-30T14:27:35.173Z,2.17
2018-07-30T14:30:05.147Z,2.40
2018-07-30T14:32:34.092Z,2.30
2018-07-30T14:35:03.077Z,2.17
2018-07-30T14:37:31.980Z,2.00
2018-07-30T14:40:05.281Z,2.40
2018-07-30T14:42:34.308Z,2.20
2018-07-30T14:45:03.180Z,2.40
2018-07-30T14:47:32.062Z,2.43
2018-07-30T14:50:00.917Z,2.27
2018-07-30T14:52:29.850Z,1.93
2018-07-30T14:54:58.824Z,2.58
2018-07-30T14:57:27.728Z,2.13
2018-07-30T14:59:56.586Z,2.07
2018-07-30T15:02:26.016Z,2.03
2018-07-30T15:04:55.126Z,1.83
2018-07-30T15:07:23.988Z,2.30
2018-07-30T15:09:52.999Z,1.90
2018-07-30T15:12:22.045Z,1.80
2018-07-30T15:14:51.457Z,2.43
2018-07-30T15:17:20.847Z,2.10
2018-07-30T15:19:49.774Z,2.10
2018-07-30T15:22:18.949Z,2.27
2018-07-30T15:24:47.913Z,2.13
2018-07-30T15:27:17.555Z,2.40
2018-07-30T15:29:46.412Z,2.03
2018-07-30T15:32:15.300Z,2.40
2018-07-30T15:34:45.037Z,2.07
2018-07-30T15:37:14.512Z,2.10
2018-07-30T15:39:43.372Z,2.30
2018-07-30T15:42:12.785Z,2.03
2018-07-30T15:44:41.679Z,2.20
2018-07-30T15:47:10.575Z,2.30
2018-07-30T15:49:39.511Z,1.90
2018-07-30T15:52:08.397Z,2.17
2018-07-30T15:54:37.352Z,2.03
2018-07-30T15:57:06.324Z,2.10
2018-07-30T15:59:35.277Z,1.93
2018-07-30T16:02:04.379Z,1.90
2018-07-30T16:04:33.290Z,2.00
2018-07-30T16:07:02.779Z,1.70
2018-07-30T16:09:31.619Z,1.50
2018-07-30T16:12:00.881Z,1.87
2018-07-30T16:14:29.767Z,2.00
2018-07-30T16:16:58.646Z,1.87
2018-07-30T16:19:27.485Z,1.77
2018-07-30T16:21:56.637Z,1.60
2018-07-30T16:24:25.520Z,1.80
2018-07-30T16:26:54.395Z,2.00
2018-07-30T16:29:23.235Z,1.70
2018-07-30T16:31:52.121Z,2.00
2018-07-30T16:34:21.072Z,1.90
2018-07-30T16:36:49.890Z,2.10
2018-07-30T16:39:18.811Z,2.00
2018-07-30T16:41:47.664Z,1.97
2018-07-30T16:44:16.551Z,2.13
2018-07-30T16:46:45.424Z,1.87
2018-07-30T16:49:15.088Z,1.95
2018-07-30T16:51:43.954Z,1.83
2018-07-30T16:54:12.881Z,1.90
2018-07-30T16:56:41.755Z,1.70
2018-07-30T16:59:11.133Z,1.80
2018-07-30T17:01:40.076Z,2.10
2018-07-30T17:04:08.953Z,1.77
2018-07-30T17:06:38.037Z,1.90
2018-07-30T17:09:09.213Z,1.70
2018-07-30T17:11:38.143Z,1.80
2018-07-30T17:14:07.020Z,1.73
2018-07-30T17:16:35.916Z,1.80
2018-07-30T17:19:04.846Z,2.00
2018-07-30T17:21:33.781Z,2.10
2018-07-30T17:24:02.690Z,1.47
2018-07-30T17:26:31.554Z,1.93
2018-07-30T17:29:00.452Z,1.60
2018-07-30T17:31:29.367Z,1.87
2018-07-30T17:33:58.183Z,1.60
2018-07-30T17:36:27.015Z,1.37
2018-07-30T17:38:55.936Z,1.60
2018-07-30T17:41:25.650Z,2.00
2018-07-30T17:43:54.578Z,1.83
2018-07-30T17:46:23.440Z,1.50
2018-07-30T17:48:52.418Z,1.53
2018-07-30T17:51:21.391Z,1.43
2018-07-30T17:53:50.291Z,2.10
2018-07-30T17:56:19.153Z,1.30
2018-07-30T17:58:48.010Z,1.80
2018-07-30T18:01:17.328Z,1.77
2018-07-30T18:03:46.233Z,1.60
2018-07-30T18:06:15.043Z,1.50
2018-07-30T18:08:43.890Z,1.37
2018-07-30T18:11:12.824Z,1.80
2018-07-30T18:13:42.122Z,1.70
2018-07-30T18:16:11.164Z,1.70
2018-07-30T18:18:40.060Z,1.70
2018-07-30T18:21:09.228Z,1.57
2018-07-30T18:23:38.073Z,1.73
2018-07-30T18:26:07.218Z,2.20
2018-07-30T18:28:35.922Z,2.40
2018-07-30T18:31:04.779Z,2.03
2018-07-30T18:33:33.853Z,1.97
2018-07-30T18:36:02.741Z,1.87
2018-07-30T18:38:31.684Z,1.90
2018-07-30T18:41:03.552Z,1.90
2018-07-30T18:43:32.385Z,2.33
2018-07-30T18:46:01.808Z,2.23
2018-07-30T18:48:30.726Z,3.20
2018-07-30T18:50:59.556Z,1.60
2018-07-30T18:53:28.490Z,1.90
2018-07-30T18:55:57.433Z,2.50
2018-07-30T18:58:26.306Z,2.77
2018-07-30T19:00:55.284Z,2.50
2018-07-30T19:03:24.456Z,2.30
2018-07-30T19:05:53.335Z,2.50
2018-07-30T19:08:22.273Z,2.57
2018-07-30T19:10:51.098Z,2.73
2018-07-30T19:13:19.763Z,2.80
2018-07-30T19:15:48.547Z,3.10
2018-07-30T19:18:17.404Z,2.45
2018-07-30T19:20:46.412Z,2.70
2018-07-30T19:23:15.512Z,2.73
2018-07-30T19:25:44.437Z,2.70
2018-07-30T19:28:13.280Z,2.53
2018-07-30T19:30:42.228Z,3.03
2018-07-30T19:33:11.308Z,2.60
2018-07-30T19:35:40.312Z,2.43
2018-07-30T19:38:09.397Z,2.57
2018-07-30T19:40:38.282Z,2.20
2018-07-30T19:43:07.229Z,4.00
2018-07-30T19:45:36.376Z,2.40
2018-07-30T19:48:05.275Z,2.40
2018-07-30T19:50:34.295Z,4.03
2018-07-30T19:53:03.167Z,3.83
2018-07-30T19:55:34.687Z,3.63
2018-07-30T19:58:05.032Z,3.57
2018-07-30T20:00:33.901Z,3.73
2018-07-30T20:03:03.061Z,3.17
2018-07-30T20:05:32.184Z,2.97
2018-07-30T20:08:01.116Z,2.70
2018-07-30T20:10:30.264Z,2.93
2018-07-30T20:12:58.934Z,2.80
2018-07-30T20:15:27.741Z,2.50
2018-07-30T20:17:56.943Z,3.23
2018-07-30T20:20:25.810Z,2.83
2018-07-30T20:22:54.848Z,2.00
2018-07-30T20:25:23.736Z,2.60
2018-07-30T20:27:52.740Z,2.73
2018-07-30T20:30:21.725Z,2.83
2018-07-30T20:32:51.142Z,2.43
2018-07-30T20:35:20.017Z,2.97
2018-07-30T20:37:49.044Z,3.00
2018-07-30T20:40:17.931Z,3.62
2018-07-30T20:42:46.883Z,4.00
2018-07-30T20:45:15.782Z,4.28
2018-07-30T20:47:45.000Z,3.50
2018-07-30T20:50:13.822Z,3.20
2018-07-30T20:52:42.688Z,3.50
2018-07-30T20:55:11.591Z,2.63
2018-07-30T20:57:40.459Z,3.30
2018-07-30T21:00:09.296Z,2.70
2018-07-30T21:02:38.117Z,3.10
2018-07-30T21:05:06.981Z,2.80
2018-07-30T21:07:35.824Z,2.90
2018-07-30T21:10:05.147Z,2.80
2018-07-30T21:12:34.025Z,2.90
2018-07-30T21:15:02.904Z,2.97
2018-07-30T21:17:31.769Z,2.57
2018-07-30T21:20:00.755Z,2.50
2018-07-30T21:22:29.563Z,2.77
2018-07-30T21:24:58.440Z,2.50
2018-07-30T21:27:27.391Z,2.40
2018-07-30T21:29:56.288Z,2.60
2018-07-30T21:32:25.159Z,2.30
2018-07-30T21:34:54.015Z,2.67
2018-07-30T21:37:23.004Z,2.27
2018-07-30T21:39:51.958Z,2.40
2018-07-30T21:42:20.869Z,2.30
2018-07-30T21:44:49.751Z,2.20
2018-07-30T21:47:18.647Z,2.03
2018-07-30T21:49:47.454Z,2.27
2018-07-30T21:52:16.335Z,1.90
2018-07-30T21:54:45.201Z,2.10
2018-07-30T21:57:14.059Z,1.80
2018-07-30T21:59:42.975Z,2.17
2018-07-30T22:02:11.876Z,1.90
2018-07-30T22:04:40.916Z,2.13
2018-07-30T22:07:10.082Z,2.17
2018-07-30T22:09:38.938Z,1.75
2018-07-30T22:12:07.801Z,1.90
2018-07-30T22:14:36.701Z,1.70
2018-07-30T22:17:05.913Z,2.00
2018-07-30T22:19:34.873Z,1.80
2018-07-30T22:22:04.378Z,1.90
2018-07-30T22:24:33.249Z,2.00
2018-07-30T22:27:02.143Z,1.73
2018-07-30T22:29:30.964Z,1.70
2018-07-30T22:31:59.777Z,1.77
2018-07-30T22:34:28.628Z,2.50
2018-07-30T22:36:57.442Z,1.80
2018-07-30T22:39:26.272Z,1.80
2018-07-30T22:41:55.181Z,1.90
2018-07-30T22:44:24.343Z,2.13
2018-07-30T22:46:53.227Z,2.30
2018-07-30T22:49:22.119Z,1.93
2018-07-30T22:51:51.025Z,3.37
2018-07-30T22:54:19.863Z,2.93
2018-07-30T22:56:48.775Z,2.53
2018-07-30T22:59:17.697Z,3.90
2018-07-30T23:01:46.588Z,2.90
2018-07-30T23:04:15.171Z,3.43
2018-07-30T23:06:44.003Z,3.43
2018-07-30T23:09:12.844Z,3.33
2018-07-30T23:11:41.778Z,3.30
2018-07-30T23:14:10.583Z,2.73
2018-07-30T23:16:39.433Z,2.70
2018-07-30T23:19:08.259Z,3.90
2018-07-30T23:21:37.157Z,6.33
2018-07-30T23:24:05.980Z,4.70
2018-07-30T23:26:35.468Z,3.50
2018-07-30T23:29:04.343Z,3.73
2018-07-30T23:31:33.144Z,2.80
2018-07-30T23:34:01.992Z,2.73
2018-07-30T23:36:30.868Z,3.20
2018-07-30T23:38:59.739Z,2.63
2018-07-30T23:41:28.681Z,4.00
2018-07-30T23:43:57.595Z,3.50
2018-07-30T23:46:27.029Z,2.77
2018-07-30T23:48:55.876Z,2.70
2018-07-30T23:51:24.708Z,3.00
2018-07-30T23:53:53.730Z,2.97
2018-07-30T23:56:22.847Z,2.63
2018-07-30T23:58:51.781Z,2.40
